Time;durP1;ratioP1;P1;durP2;ratioP2;P2;SDS_P1;SDS_P2;PMS_P1;PMS_P2;Temp;Humidity;BMP_temperature;BMP_pressure;BME280_temperature;BME280_humidity;BME280_pressure;Samples;Min_cycle;Max_cycle;Signal;HPM_P1;HPM_P2
2022/06/22 00:01:26;;;;;;;31.05;6.18;;;;;;;;;;5047402;28;20048;-76
2022/06/22 00:03:59;;;;;;;28.27;5.23;;;;;;;;;;5050505;28;20024;-79
2022/06/22 00:06:43;;;;;;;27.02;5.43;;;;;;;;;;5054531;28;20032;-77
2022/06/22 00:09:21;;;;;;;26.92;5.35;;;;;;;;;;5047436;28;20054;-77
2022/06/22 00:11:58;;;;;;;27.45;5.95;;;;;;;;;;5050854;28;20029;-77
2022/06/22 00:14:33;;;;;;;29.17;4.70;;;;;;;;;;5038753;28;20025;-78
2022/06/22 00:16:59;;;;;;;27.35;5.20;;;;;;;;;;5028463;28;20048;-77
2022/06/22 00:19:41;;;;;;;30.52;6.32;;;;;;;;;;5041823;28;20028;-77
2022/06/22 00:22:21;;;;;;;24.50;5.30;;;;;;;;;;5043882;28;20051;-77
2022/06/22 00:25:01;;;;;;;25.52;5.47;;;;;;;;;;5049059;28;20036;-78
2022/06/22 00:27:37;;;;;;;28.90;5.20;;;;;;;;;;5049775;28;20029;-78
2022/06/22 00:30:22;;;;;;;24.83;5.00;;;;;;;;;;5048776;28;20107;-78
2022/06/22 00:33:08;;;;;;;23.38;4.78;;;;;;;;;;5048190;28;20025;-77
2022/06/22 00:35:51;;;;;;;23.75;4.93;;;;;;;;;;5044305;28;20380;-77
2022/06/22 00:38:22;;;;;;;26.95;5.38;;;;;;;;;;5044983;28;20493;-77
2022/06/22 00:40:51;;;;;;;28.73;5.40;;;;;;;;;;5038683;28;20064;-77
2022/06/22 00:43:19;;;;;;;27.73;5.10;;;;;;;;;;5045342;28;20101;-77
2022/06/22 00:45:49;;;;;;;26.92;4.97;;;;;;;;;;5045889;28;20493;-77
2022/06/22 00:48:35;;;;;;;24.88;4.85;;;;;;;;;;5047542;28;20455;-77
2022/06/22 00:51:08;;;;;;;24.17;5.10;;;;;;;;;;5041654;28;20036;-77
2022/06/22 00:54:06;;;;;;;25.05;5.50;;;;;;;;;;5047191;28;20078;-77
2022/06/22 00:56:41;;;;;;;23.70;4.97;;;;;;;;;;5036468;28;20041;-77
2022/06/22 00:59:26;;;;;;;26.10;5.32;;;;;;;;;;5043529;28;20028;-77
2022/06/22 01:01:56;;;;;;;22.30;5.38;;;;;;;;;;5047297;28;20032;-76
2022/06/22 01:04:30;;;;;;;24.45;4.95;;;;;;;;;;5049631;28;20036;-76
2022/06/22 01:06:57;;;;;;;24.20;5.57;;;;;;;;;;5047054;28;20040;-78
2022/06/22 01:09:32;;;;;;;25.55;5.05;;;;;;;;;;5049467;28;20048;-77
2022/06/22 01:12:16;;;;;;;22.73;5.18;;;;;;;;;;5042832;28;20121;-77
2022/06/22 01:14:45;;;;;;;21.17;4.68;;;;;;;;;;5048298;28;20043;-77
2022/06/22 01:17:14;;;;;;;26.40;5.38;;;;;;;;;;5046644;28;20028;-77
2022/06/22 01:19:52;;;;;;;21.63;4.85;;;;;;;;;;5049760;28;20032;-77
2022/06/22 01:22:21;;;;;;;19.70;5.05;;;;;;;;;;5050593;28;20032;-77
2022/06/22 01:24:48;;;;;;;30.35;5.47;;;;;;;;;;5045086;28;20041;-78
2022/06/22 01:27:31;;;;;;;23.13;5.55;;;;;;;;;;5041330;28;20138;-78
2022/06/22 01:29:59;;;;;;;23.77;5.40;;;;;;;;;;5043773;28;20040;-77
2022/06/22 01:32:45;;;;;;;21.73;4.82;;;;;;;;;;5049614;28;20033;-77
2022/06/22 01:35:24;;;;;;;27.00;5.15;;;;;;;;;;5041826;28;20037;-77
2022/06/22 01:37:51;;;;;;;21.48;4.75;;;;;;;;;;5049335;28;20052;-77
2022/06/22 01:40:24;;;;;;;24.02;4.70;;;;;;;;;;5046131;28;20040;-77
2022/06/22 01:42:58;;;;;;;22.48;5.03;;;;;;;;;;5040855;28;20245;-76
2022/06/22 01:45:31;;;;;;;23.10;4.95;;;;;;;;;;5048887;28;20128;-77
2022/06/22 01:48:00;;;;;;;21.73;5.05;;;;;;;;;;5047015;28;20074;-76
2022/06/22 01:50:30;;;;;;;19.63;4.50;;;;;;;;;;5044782;28;20147;-76
2022/06/22 01:53:13;;;;;;;20.65;5.35;;;;;;;;;;5046877;28;20029;-77
2022/06/22 01:55:39;;;;;;;20.15;4.57;;;;;;;;;;5045953;28;20021;-76
2022/06/22 01:58:18;;;;;;;20.80;4.65;;;;;;;;;;5035926;28;20320;-76
2022/06/22 02:00:57;;;;;;;22.30;4.97;;;;;;;;;;5044063;28;20091;-77
2022/06/22 02:03:27;;;;;;;20.52;4.45;;;;;;;;;;5044212;28;20457;-79
2022/06/22 02:06:01;;;;;;;20.90;4.82;;;;;;;;;;5042873;28;20071;-77
2022/06/22 02:08:44;;;;;;;30.33;5.25;;;;;;;;;;5045142;28;20059;-77
2022/06/22 02:11:14;;;;;;;23.40;5.13;;;;;;;;;;5043028;28;20021;-77
2022/06/22 02:14:03;;;;;;;19.17;4.38;;;;;;;;;;5024339;28;20073;-76
2022/06/22 02:16:48;;;;;;;22.23;4.68;;;;;;;;;;5048649;28;20029;-77
2022/06/22 02:19:20;;;;;;;22.60;4.78;;;;;;;;;;5042739;28;20360;-77
2022/06/22 02:21:53;;;;;;;25.13;5.40;;;;;;;;;;5046600;28;20035;-76
2022/06/22 02:24:30;;;;;;;23.58;4.93;;;;;;;;;;5023506;28;20033;-78
2022/06/22 02:27:08;;;;;;;22.45;4.85;;;;;;;;;;5043907;28;20032;-76
2022/06/22 02:29:49;;;;;;;23.67;5.07;;;;;;;;;;5043164;28;20108;-77
2022/06/22 02:32:21;;;;;;;19.30;4.28;;;;;;;;;;5049703;28;20102;-76
2022/06/22 02:34:50;;;;;;;22.42;4.68;;;;;;;;;;5048419;28;20331;-77
2022/06/22 02:37:22;;;;;;;24.08;4.57;;;;;;;;;;5046203;28;20036;-77
2022/06/22 02:39:55;;;;;;;24.15;4.93;;;;;;;;;;5044112;28;20039;-77
2022/06/22 02:45:09;;;;;;;20.70;4.70;;;;;;;;;;5047584;28;20082;-77
2022/06/22 02:47:56;;;;;;;26.13;4.68;;;;;;;;;;5049511;28;20036;-77
2022/06/22 02:50:41;;;;;;;23.65;4.78;;;;;;;;;;5048726;28;20037;-77
2022/06/22 02:53:22;;;;;;;24.63;4.93;;;;;;;;;;5051751;28;20366;-77
2022/06/22 02:55:49;;;;;;;21.88;5.10;;;;;;;;;;5048964;28;20033;-80
2022/06/22 02:58:41;;;;;;;29.55;5.03;;;;;;;;;;5049665;28;20107;-78
2022/06/22 03:01:12;;;;;;;22.92;4.63;;;;;;;;;;5047514;28;20048;-77
2022/06/22 03:03:44;;;;;;;24.13;5.03;;;;;;;;;;5053693;28;20024;-77
2022/06/22 03:06:11;;;;;;;23.20;4.55;;;;;;;;;;5047535;28;20455;-77
2022/06/22 03:08:38;;;;;;;25.58;5.28;;;;;;;;;;5057085;28;20525;-77
2022/06/22 03:11:05;;;;;;;20.83;4.43;;;;;;;;;;5042599;28;20036;-77
2022/06/22 03:13:39;;;;;;;22.75;5.10;;;;;;;;;;5049809;28;20023;-77
2022/06/22 03:16:07;;;;;;;26.80;5.32;;;;;;;;;;5047027;28;20176;-77
2022/06/22 03:18:35;;;;;;;24.63;4.72;;;;;;;;;;5048985;28;20012;-77
2022/06/22 03:21:04;;;;;;;24.08;4.90;;;;;;;;;;5046096;28;20135;-77
2022/06/22 03:23:49;;;;;;;28.95;5.43;;;;;;;;;;5048842;28;20024;-77
2022/06/22 03:26:24;;;;;;;23.70;5.20;;;;;;;;;;5050309;28;20122;-77
2022/06/22 03:28:55;;;;;;;24.27;4.72;;;;;;;;;;5046310;28;20036;-77
2022/06/22 03:31:24;;;;;;;21.60;4.82;;;;;;;;;;5052382;28;20315;-78
2022/06/22 03:33:50;;;;;;;19.67;4.53;;;;;;;;;;5038726;28;20361;-77
2022/06/22 03:36:19;;;;;;;26.08;5.30;;;;;;;;;;5049552;28;20608;-78
2022/06/22 03:38:48;;;;;;;23.50;4.60;;;;;;;;;;5053182;28;20024;-77
2022/06/22 03:41:19;;;;;;;22.75;4.53;;;;;;;;;;5051152;28;20032;-78
2022/06/22 03:43:49;;;;;;;20.15;4.13;;;;;;;;;;5047437;28;20036;-78
2022/06/22 03:46:21;;;;;;;20.23;4.60;;;;;;;;;;5046713;28;20036;-77
2022/06/22 03:48:48;;;;;;;20.83;4.85;;;;;;;;;;5044037;28;20032;-78
2022/06/22 03:51:19;;;;;;;27.00;5.38;;;;;;;;;;5047414;28;20030;-77
2022/06/22 03:54:04;;;;;;;23.15;5.15;;;;;;;;;;5048461;28;20056;-77
2022/06/22 03:56:34;;;;;;;20.92;4.63;;;;;;;;;;5042648;28;20040;-78
2022/06/22 03:59:04;;;;;;;23.98;5.10;;;;;;;;;;5043164;28;20033;-77
2022/06/22 04:01:31;;;;;;;19.60;4.15;;;;;;;;;;5045779;28;20048;-77
2022/06/22 04:03:59;;;;;;;19.90;4.85;;;;;;;;;;5041195;28;20485;-77
2022/06/22 04:06:41;;;;;;;22.70;4.50;;;;;;;;;;5045208;28;20032;-77
2022/06/22 04:09:12;;;;;;;21.67;4.82;;;;;;;;;;5042638;28;20083;-78
2022/06/22 04:11:56;;;;;;;22.67;5.13;;;;;;;;;;5045622;28;20024;-78
2022/06/22 04:14:30;;;;;;;25.13;4.97;;;;;;;;;;5046572;28;20775;-77
2022/06/22 04:17:10;;;;;;;25.13;4.85;;;;;;;;;;5036758;28;20820;-78
2022/06/22 04:19:46;;;;;;;21.95;5.22;;;;;;;;;;5043957;28;20024;-77
2022/06/22 04:22:16;;;;;;;21.77;4.53;;;;;;;;;;5038351;28;20573;-77
2022/06/22 04:25:00;;;;;;;26.45;5.25;;;;;;;;;;5046173;28;20062;-76
2022/06/22 04:27:38;;;;;;;17.80;4.45;;;;;;;;;;5045605;28;20394;-77
2022/06/22 04:30:17;;;;;;;22.52;5.75;;;;;;;;;;5043400;28;20754;-74
2022/06/22 04:32:58;;;;;;;26.45;6.20;;;;;;;;;;5047493;28;20802;-79
2022/06/22 04:35:43;;;;;;;22.67;4.78;;;;;;;;;;5052196;28;20036;-76
2022/06/22 04:38:17;;;;;;;23.63;5.15;;;;;;;;;;5044302;28;21331;-76
2022/06/22 04:40:59;;;;;;;26.55;5.90;;;;;;;;;;5060931;28;20497;-75
2022/06/22 04:43:27;;;;;;;26.30;5.60;;;;;;;;;;5049433;28;20025;-77
2022/06/22 04:45:55;;;;;;;29.83;6.03;;;;;;;;;;5046002;28;20036;-77
2022/06/22 04:48:29;;;;;;;23.33;5.43;;;;;;;;;;5048352;28;20588;-76
2022/06/22 04:51:01;;;;;;;25.60;5.68;;;;;;;;;;5045087;28;20565;-76
2022/06/22 04:53:38;;;;;;;27.75;5.75;;;;;;;;;;5047820;28;20199;-76
2022/06/22 04:56:07;;;;;;;23.50;5.03;;;;;;;;;;5046433;28;20036;-77
2022/06/22 04:58:40;;;;;;;23.00;5.20;;;;;;;;;;5045909;28;20032;-77
2022/06/22 05:01:06;;;;;;;21.83;5.32;;;;;;;;;;5042737;28;20498;-77
2022/06/22 05:03:34;;;;;;;25.65;5.45;;;;;;;;;;5049301;28;20024;-76
2022/06/22 05:06:03;;;;;;;22.45;4.82;;;;;;;;;;5044514;28;20043;-77
2022/06/22 05:08:34;;;;;;;23.15;5.50;;;;;;;;;;5047153;28;20075;-77
2022/06/22 05:11:03;;;;;;;21.80;5.30;;;;;;;;;;5043725;28;20033;-75
2022/06/22 05:13:48;;;;;;;28.27;6.45;;;;;;;;;;5047765;28;20023;-77
2022/06/22 05:16:16;;;;;;;30.52;6.07;;;;;;;;;;5046540;28;20024;-78
2022/06/22 05:18:43;;;;;;;25.80;5.57;;;;;;;;;;5046013;28;20060;-78
2022/06/22 05:21:12;;;;;;;20.95;5.28;;;;;;;;;;5046854;28;20494;-77
2022/06/22 05:23:40;;;;;;;25.85;5.68;;;;;;;;;;5050205;28;20028;-77
2022/06/22 05:26:07;;;;;;;24.70;5.45;;;;;;;;;;5047291;28;20571;-76
2022/06/22 05:28:36;;;;;;;23.35;5.10;;;;;;;;;;5044885;28;20100;-76
2022/06/22 05:31:07;;;;;;;23.63;5.20;;;;;;;;;;5043926;28;20411;-76
2022/06/22 05:33:35;;;;;;;21.15;4.88;;;;;;;;;;5046635;28;20286;-77
2022/06/22 05:36:06;;;;;;;21.35;4.57;;;;;;;;;;5045280;28;20513;-76
2022/06/22 05:38:35;;;;;;;18.67;4.78;;;;;;;;;;5039665;28;20046;-76
2022/06/22 05:41:04;;;;;;;24.90;6.22;;;;;;;;;;5042560;28;20875;-76
2022/06/22 05:43:32;;;;;;;23.95;5.30;;;;;;;;;;5048148;28;20040;-76
2022/06/22 05:46:02;;;;;;;29.48;5.78;;;;;;;;;;5043995;28;20033;-76
2022/06/22 05:48:29;;;;;;;29.45;5.53;;;;;;;;;;5044713;28;20166;-75
2022/06/22 05:50:58;;;;;;;25.65;5.78;;;;;;;;;;5042045;28;20032;-77
2022/06/22 05:53:28;;;;;;;24.45;5.53;;;;;;;;;;5048039;28;20029;-76
2022/06/22 05:56:09;;;;;;;22.55;5.25;;;;;;;;;;5050318;28;20028;-75
2022/06/22 05:58:45;;;;;;;27.13;5.85;;;;;;;;;;5052693;28;20064;-75
2022/06/22 06:01:21;;;;;;;20.35;4.95;;;;;;;;;;5049796;28;20427;-75
2022/06/22 06:03:58;;;;;;;20.70;5.20;;;;;;;;;;5047127;28;20029;-76
2022/06/22 06:06:27;;;;;;;22.50;5.25;;;;;;;;;;5050651;28;20546;-76
2022/06/22 06:08:59;;;;;;;22.75;5.65;;;;;;;;;;5047118;28;20350;-78
2022/06/22 06:11:33;;;;;;;22.70;5.30;;;;;;;;;;5056193;28;20666;-78
2022/06/22 06:14:08;;;;;;;26.15;5.63;;;;;;;;;;5051968;28;20190;-77
2022/06/22 06:16:45;;;;;;;27.60;5.50;;;;;;;;;;5052014;28;20033;-77
2022/06/22 06:19:15;;;;;;;26.33;5.82;;;;;;;;;;5057254;28;20106;-77
2022/06/22 06:21:43;;;;;;;22.17;4.88;;;;;;;;;;5052888;28;20854;-77
2022/06/22 06:24:18;;;;;;;21.00;5.40;;;;;;;;;;5047495;28;20039;-78
2022/06/22 06:30:07;;;;;;;22.85;5.50;;;;;;;;;;5047595;28;20039;-77
2022/06/22 06:33:04;;;;;;;25.33;5.50;;;;;;;;;;5052079;28;20032;-77
2022/06/22 06:35:45;;;;;;;24.65;4.57;;;;;;;;;;4971615;28;20053;-77
2022/06/22 06:38:30;;;;;;;20.70;4.90;;;;;;;;;;4985909;28;20515;-76
2022/06/22 06:41:11;;;;;;;25.10;5.05;;;;;;;;;;4973372;28;20531;-73
2022/06/22 06:43:49;;;;;;;31.33;6.22;;;;;;;;;;4988113;28;20034;-76
2022/06/22 06:46:27;;;;;;;29.05;6.20;;;;;;;;;;4987271;28;20038;-76
2022/06/22 06:49:12;;;;;;;25.55;6.03;;;;;;;;;;4985665;28;20115;-76
2022/06/22 06:51:43;;;;;;;26.92;6.18;;;;;;;;;;4986463;28;20500;-77
2022/06/22 06:54:22;;;;;;;27.88;6.30;;;;;;;;;;4983635;28;20038;-77
2022/06/22 06:56:52;;;;;;;30.85;6.22;;;;;;;;;;4991675;28;20145;-76
2022/06/22 06:59:19;;;;;;;28.88;6.50;;;;;;;;;;4985880;28;20052;-77
2022/06/22 07:01:46;;;;;;;27.27;5.95;;;;;;;;;;4987972;28;20034;-77
2022/06/22 07:04:32;;;;;;;23.00;5.70;;;;;;;;;;4968272;28;20041;-77
2022/06/22 07:07:03;;;;;;;26.92;5.93;;;;;;;;;;4965300;28;20033;-79
2022/06/22 07:09:34;;;;;;;28.77;5.90;;;;;;;;;;4986448;28;20053;-76
2022/06/22 07:12:10;;;;;;;28.52;6.20;;;;;;;;;;5006898;28;20113;-79
2022/06/22 07:14:40;;;;;;;25.52;6.82;;;;;;;;;;5043706;28;20221;-77
2022/06/22 07:17:09;;;;;;;23.65;5.57;;;;;;;;;;5044322;28;20143;-77
2022/06/22 07:19:41;;;;;;;26.27;5.75;;;;;;;;;;5047470;28;20439;-77
2022/06/22 07:22:13;;;;;;;25.25;5.88;;;;;;;;;;5047625;28;20505;-77
2022/06/22 07:25:00;;;;;;;21.80;5.68;;;;;;;;;;5046440;28;20058;-77
2022/06/22 07:27:33;;;;;;;21.08;5.72;;;;;;;;;;5049966;28;20048;-76
2022/06/22 07:30:21;;;;;;;26.05;5.70;;;;;;;;;;5040922;28;20384;-77
2022/06/22 07:32:53;;;;;;;32.28;5.95;;;;;;;;;;5011891;28;20033;-78
2022/06/22 07:35:31;;;;;;;20.52;6.50;;;;;;;;;;5044286;28;20029;-77
2022/06/22 07:38:00;;;;;;;24.50;5.70;;;;;;;;;;5045416;28;20072;-77
2022/06/22 07:40:27;;;;;;;25.88;5.68;;;;;;;;;;5046599;28;20138;-78
2022/06/22 07:42:56;;;;;;;27.63;5.38;;;;;;;;;;5042340;28;20503;-76
2022/06/22 07:45:23;;;;;;;23.35;4.93;;;;;;;;;;5046863;28;20486;-77
2022/06/22 07:48:08;;;;;;;27.17;5.10;;;;;;;;;;5044246;28;20115;-77
2022/06/22 07:50:36;;;;;;;26.02;4.97;;;;;;;;;;5047873;28;20043;-78
2022/06/22 07:53:15;;;;;;;28.92;5.00;;;;;;;;;;5045048;28;20429;-78
2022/06/22 07:55:54;;;;;;;25.55;5.40;;;;;;;;;;5050980;28;20033;-78
2022/06/22 07:58:28;;;;;;;28.38;5.47;;;;;;;;;;5047761;28;20034;-78
2022/06/22 08:01:00;;;;;;;25.98;5.68;;;;;;;;;;5038183;28;20044;-78
2022/06/22 08:03:33;;;;;;;31.05;5.40;;;;;;;;;;5053725;28;20487;-80
2022/06/22 08:06:15;;;;;;;31.55;5.68;;;;;;;;;;5046297;28;20094;-78
2022/06/22 08:08:59;;;;;;;30.80;5.90;;;;;;;;;;5051318;28;20144;-80
2022/06/22 08:11:45;;;;;;;22.85;5.30;;;;;;;;;;5046455;28;20272;-79
2022/06/22 08:14:20;;;;;;;26.95;4.75;;;;;;;;;;5045632;28;20029;-76
2022/06/22 08:16:57;;;;;;;27.17;5.93;;;;;;;;;;5045089;28;20081;-80
2022/06/22 08:19:29;;;;;;;25.30;4.90;;;;;;;;;;5047437;28;20044;-75
2022/06/22 08:22:04;;;;;;;29.40;5.55;;;;;;;;;;5027901;28;20861;-79
2022/06/22 08:24:37;;;;;;;29.63;5.82;;;;;;;;;;5051543;28;20572;-76
2022/06/22 08:27:09;;;;;;;27.63;5.30;;;;;;;;;;5052224;28;20033;-79
2022/06/22 08:29:37;;;;;;;27.40;5.72;;;;;;;;;;5044902;28;20123;-77
2022/06/22 08:32:13;;;;;;;33.70;5.85;;;;;;;;;;5046268;28;20116;-77
2022/06/22 08:34:43;;;;;;;28.15;5.72;;;;;;;;;;5045759;28;20082;-77
2022/06/22 08:37:40;;;;;;;27.83;4.95;;;;;;;;;;5042764;28;20180;-79
2022/06/22 08:40:35;;;;;;;26.30;5.00;;;;;;;;;;4985641;28;20769;-75
2022/06/22 08:43:17;;;;;;;22.80;5.00;;;;;;;;;;4985774;28;20666;-78
2022/06/22 08:45:53;;;;;;;23.52;4.57;;;;;;;;;;4993386;28;20069;-75
2022/06/22 08:48:32;;;;;;;23.63;4.22;;;;;;;;;;5030072;28;20037;-75
2022/06/22 08:51:19;;;;;;;23.35;4.97;;;;;;;;;;5010128;28;20041;-75
2022/06/22 08:53:46;;;;;;;;;;;;;;;;;;5033717;28;20125;-75
2022/06/22 08:56:24;;;;;;;27.95;5.07;;;;;;;;;;5026621;28;20200;-76
2022/06/22 08:58:56;;;;;;;22.75;4.82;;;;;;;;;;5021306;28;20098;-75
2022/06/22 09:01:41;;;;;;;26.58;4.88;;;;;;;;;;5032796;28;20064;-79
2022/06/22 09:04:11;;;;;;;22.33;4.18;;;;;;;;;;5034180;28;20535;-75
2022/06/22 09:06:43;;;;;;;22.55;4.00;;;;;;;;;;5029531;28;20035;-75
2022/06/22 09:09:19;;;;;;;18.15;3.60;;;;;;;;;;5028471;28;20082;-75
2022/06/22 09:11:55;;;;;;;24.70;4.93;;;;;;;;;;5030316;28;20036;-63
2022/06/22 09:14:32;;;;;;;17.52;2.95;;;;;;;;;;5040336;28;20389;-76
2022/06/22 09:17:13;;;;;;;20.33;3.78;;;;;;;;;;5036197;28;20037;-77
2022/06/22 09:19:45;;;;;;;20.58;3.63;;;;;;;;;;5036237;28;20025;-77
2022/06/22 09:22:16;;;;;;;19.27;4.05;;;;;;;;;;5043757;28;20036;-78
2022/06/22 09:25:06;;;;;;;21.63;3.92;;;;;;;;;;5038304;28;20415;-79
2022/06/22 09:27:32;;;;;;;17.60;3.72;;;;;;;;;;5035084;28;20443;-78
2022/06/22 09:30:11;;;;;;;20.02;3.85;;;;;;;;;;5037960;28;20039;-72
2022/06/22 09:32:40;;;;;;;18.17;3.58;;;;;;;;;;5040453;28;20757;-72
2022/06/22 09:35:16;;;;;;;26.73;4.57;;;;;;;;;;5036018;28;20425;-70
2022/06/22 09:37:50;;;;;;;18.70;3.97;;;;;;;;;;5037292;28;20040;-70
2022/06/22 09:40:25;;;;;;;16.75;3.50;;;;;;;;;;5034872;28;20026;-70
2022/06/22 09:43:06;;;;;;;20.58;4.20;;;;;;;;;;5033665;28;20413;-70
2022/06/22 09:45:33;;;;;;;19.33;3.83;;;;;;;;;;5036741;28;20045;-70
2022/06/22 09:48:22;;;;;;;19.75;3.80;;;;;;;;;;5032111;28;20044;-71
2022/06/22 09:51:00;;;;;;;24.45;3.97;;;;;;;;;;4978430;28;20046;-71
2022/06/22 09:53:27;;;;;;;22.02;4.30;;;;;;;;;;4973396;28;20146;-71
2022/06/22 09:56:24;;;;;;;17.40;3.55;;;;;;;;;;4987698;28;20221;-71
2022/06/22 09:58:51;;;;;;;;;;;;;;;;;;4988088;28;20030;-71
2022/06/22 10:01:48;;;;;;;21.13;4.45;;;;;;;;;;4991315;28;19972;-70
2022/06/22 10:04:15;;;;;;;;;;;;;;;;;;4973322;28;20046;-70
2022/06/22 10:06:54;;;;;;;23.05;4.10;;;;;;;;;;4970986;28;19920;-71
2022/06/22 10:09:27;;;;;;;21.60;4.25;;;;;;;;;;4954856;28;20057;-71
2022/06/22 10:12:13;;;;;;;22.58;4.35;;;;;;;;;;4971385;28;20135;-70
2022/06/22 10:14:40;;;;;;;20.02;3.90;;;;;;;;;;4973421;28;20253;-71
2022/06/22 10:17:26;;;;;;;22.35;3.97;;;;;;;;;;4966215;28;20023;-71
2022/06/22 10:20:14;;;;;;;19.65;3.75;;;;;;;;;;4967145;28;20110;-71
2022/06/22 10:22:59;;;;;;;20.15;3.85;;;;;;;;;;4970736;28;20042;-70
2022/06/22 10:25:35;;;;;;;18.80;4.03;;;;;;;;;;4962394;28;20113;-79
2022/06/22 10:28:04;;;;;;;17.35;3.90;;;;;;;;;;4952991;28;20061;-78
2022/06/22 10:31:01;;;;;;;21.05;3.90;;;;;;;;;;4988186;28;20117;-78
2022/06/22 10:33:49;;;;;;;18.55;3.28;;;;;;;;;;4936475;29;20106;-77
2022/06/22 10:36:34;;;;;;;18.80;4.03;;;;;;;;;;4927441;29;20028;-78
2022/06/22 10:39:08;;;;;;;21.02;4.07;;;;;;;;;;4920487;29;20043;-70
2022/06/22 10:45:13;;;;;;;18.92;4.10;;;;;;;;;;4972583;28;20041;-71
2022/06/22 10:47:58;;;;;;;22.90;3.65;;;;;;;;;;4965082;28;20233;-78
2022/06/22 10:50:37;;;;;;;14.85;3.42;;;;;;;;;;4960524;28;20094;-77
2022/06/22 10:53:24;;;;;;;18.88;4.22;;;;;;;;;;4957763;28;20128;-77
2022/06/22 10:55:53;;;;;;;19.45;3.88;;;;;;;;;;4959166;28;20026;-78
2022/06/22 10:58:19;;;;;;;21.58;3.83;;;;;;;;;;4962312;28;20053;-78
2022/06/22 11:01:04;;;;;;;24.05;4.32;;;;;;;;;;4963651;28;20096;-77
2022/06/22 11:03:39;;;;;;;21.40;4.57;;;;;;;;;;4962113;28;20552;-77
2022/06/22 11:06:17;;;;;;;17.98;4.40;;;;;;;;;;4947731;28;20034;-77
2022/06/22 11:09:01;;;;;;;17.77;4.25;;;;;;;;;;4956885;28;20037;-77
2022/06/22 11:11:53;;;;;;;18.83;3.67;;;;;;;;;;5023135;28;20041;-77
2022/06/22 11:14:22;;;;;;;23.35;4.32;;;;;;;;;;4998889;28;20037;-77
2022/06/22 11:16:49;;;;;;;26.17;4.40;;;;;;;;;;4995516;28;20053;-77
2022/06/22 11:19:24;;;;;;;21.15;4.30;;;;;;;;;;5002765;28;20286;-77
2022/06/22 11:22:02;;;;;;;22.42;4.70;;;;;;;;;;5000404;28;20060;-77
2022/06/22 11:24:34;;;;;;;17.92;4.25;;;;;;;;;;5002874;28;20026;-78
2022/06/22 11:32:57;;;;;;;22.15;4.93;;;;;;;;;;5004166;28;20914;-77
2022/06/22 11:35:42;;;;;;;25.00;4.40;;;;;;;;;;5006809;28;20041;-77
2022/06/22 11:38:27;;;;;;;22.10;4.22;;;;;;;;;;5006573;28;20045;-77
2022/06/22 11:41:08;;;;;;;26.92;5.35;;;;;;;;;;5010674;28;20041;-77
2022/06/22 11:43:41;;;;;;;21.25;4.78;;;;;;;;;;5011249;28;20502;-78
2022/06/22 11:46:30;;;;;;;18.73;4.38;;;;;;;;;;5023650;28;20045;-77
2022/06/22 11:49:15;;;;;;;20.70;4.80;;;;;;;;;;5004279;28;20114;-78
2022/06/22 11:51:41;;;;;;;20.58;4.05;;;;;;;;;;4993047;28;20033;-72
2022/06/22 11:54:13;;;;;;;21.10;5.05;;;;;;;;;;5003619;28;20130;-72
2022/06/22 11:56:55;;;;;;;18.33;4.07;;;;;;;;;;5010511;28;20277;-72
2022/06/22 11:59:43;;;;;;;19.27;4.07;;;;;;;;;;4993425;28;20636;-72
2022/06/22 12:02:29;;;;;;;19.92;4.47;;;;;;;;;;5002530;28;21221;-72
2022/06/22 12:05:16;;;;;;;18.88;4.00;;;;;;;;;;4989134;28;20041;-71
2022/06/22 12:08:01;;;;;;;22.27;4.70;;;;;;;;;;5002257;28;20825;-71
2022/06/22 12:10:47;;;;;;;21.92;4.20;;;;;;;;;;5005506;28;20427;-70
2022/06/22 12:13:38;;;;;;;21.05;3.90;;;;;;;;;;5002977;28;20029;-71
2022/06/22 12:16:33;;;;;;;17.25;3.92;;;;;;;;;;4999660;28;20040;-70
2022/06/22 12:19:06;;;;;;;22.02;3.75;;;;;;;;;;5003174;28;20041;-70
2022/06/22 12:21:54;;;;;;;16.75;3.95;;;;;;;;;;4986950;28;20053;-70
2022/06/22 12:24:45;;;;;;;22.95;4.68;;;;;;;;;;5003202;28;20534;-70
2022/06/22 12:27:24;;;;;;;18.65;3.72;;;;;;;;;;5024979;28;20106;-71
2022/06/22 12:30:10;;;;;;;21.33;3.85;;;;;;;;;;5023710;28;20025;-71
2022/06/22 12:32:45;;;;;;;19.38;4.05;;;;;;;;;;5032897;28;20036;-71
2022/06/22 12:35:13;;;;;;;;;;;;;;;;;;5031150;28;20032;-70
2022/06/22 12:37:52;;;;;;;17.77;3.60;;;;;;;;;;5028140;28;19912;-71
2022/06/22 12:40:37;;;;;;;19.05;4.20;;;;;;;;;;5010369;28;20049;-70
2022/06/22 12:43:24;;;;;;;18.97;3.83;;;;;;;;;;5021259;28;20046;-69
2022/06/22 12:46:10;;;;;;;17.90;3.63;;;;;;;;;;5007117;28;20061;-70
2022/06/22 12:49:09;;;;;;;16.42;4.10;;;;;;;;;;5030025;28;20044;-70
2022/06/22 12:51:55;;;;;;;22.05;3.63;;;;;;;;;;4990434;28;20037;-71
2022/06/22 12:54:24;;;;;;;15.13;3.30;;;;;;;;;;5022850;28;20037;-69
2022/06/22 12:57:00;;;;;;;17.90;3.47;;;;;;;;;;5033816;28;20083;-70
2022/06/22 12:59:31;;;;;;;19.83;3.85;;;;;;;;;;5021718;28;20041;-70
2022/06/22 13:01:57;;;;;;;18.85;3.72;;;;;;;;;;5012581;28;20041;-69
2022/06/22 13:04:31;;;;;;;19.63;3.53;;;;;;;;;;5019506;28;20428;-69
2022/06/22 13:06:59;;;;;;;17.63;3.90;;;;;;;;;;5037640;28;20092;-71
2022/06/22 13:09:26;;;;;;;17.48;3.33;;;;;;;;;;5024464;28;20037;-71
2022/06/22 13:11:53;;;;;;;21.05;3.95;;;;;;;;;;5012032;28;20068;-69
2022/06/22 13:14:19;;;;;;;16.25;3.97;;;;;;;;;;5030499;28;20021;-70
2022/06/22 13:17:04;;;;;;;22.58;3.97;;;;;;;;;;5025559;28;20459;-70
2022/06/22 13:19:30;;;;;;;21.63;3.97;;;;;;;;;;5029668;28;20151;-70
2022/06/22 13:22:05;;;;;;;22.35;3.97;;;;;;;;;;5024567;28;20124;-70
2022/06/22 13:24:37;;;;;;;24.35;3.85;;;;;;;;;;5026225;28;20024;-70
2022/06/22 13:27:30;;;;;;;20.05;3.72;;;;;;;;;;5022381;28;20441;-70
2022/06/22 13:30:05;;;;;;;17.83;3.90;;;;;;;;;;5019684;28;20439;-70
2022/06/22 13:32:33;;;;;;;20.92;3.65;;;;;;;;;;5029817;28;20028;-71
2022/06/22 13:35:04;;;;;;;19.65;4.03;;;;;;;;;;5019271;28;20033;-70
2022/06/22 13:37:50;;;;;;;14.63;3.20;;;;;;;;;;5029523;28;20062;-71
2022/06/22 13:40:30;;;;;;;17.17;3.45;;;;;;;;;;5028064;28;20135;-70
2022/06/22 13:42:57;;;;;;;16.13;3.60;;;;;;;;;;5027132;28;20056;-71
2022/06/22 13:45:45;;;;;;;20.05;3.65;;;;;;;;;;5028763;28;20049;-70
2022/06/22 13:48:20;;;;;;;17.95;3.45;;;;;;;;;;5031515;28;20557;-73
2022/06/22 13:53:34;;;;;;;16.70;3.30;;;;;;;;;;5030085;28;20071;-76
2022/06/22 13:56:28;;;;;;;16.70;3.72;;;;;;;;;;5026893;28;20123;-71
2022/06/22 13:58:57;;;;;;;16.15;3.42;;;;;;;;;;4982370;28;20123;-72
2022/06/22 14:01:41;;;;;;;14.52;2.80;;;;;;;;;;4988275;28;20080;-72
2022/06/22 14:04:29;;;;;;;16.55;3.15;;;;;;;;;;4982077;28;20512;-72
2022/06/22 14:07:15;;;;;;;17.00;3.83;;;;;;;;;;4967579;28;20151;-72
2022/06/22 14:10:03;;;;;;;16.00;3.60;;;;;;;;;;4972320;28;20605;-72
2022/06/22 14:12:49;;;;;;;15.32;2.88;;;;;;;;;;4928292;28;20072;-73
2022/06/22 14:15:34;;;;;;;19.15;3.35;;;;;;;;;;4985963;28;20026;-72
2022/06/22 14:18:05;;;;;;;20.90;3.80;;;;;;;;;;4982534;28;20527;-72
2022/06/22 14:20:49;;;;;;;18.75;3.63;;;;;;;;;;4971599;28;20041;-72
2022/06/22 14:23:18;;;;;;;17.25;3.05;;;;;;;;;;4967125;28;20094;-72
2022/06/22 14:25:59;;;;;;;18.95;3.92;;;;;;;;;;4968071;28;20555;-72
2022/06/22 14:28:47;;;;;;;15.27;3.38;;;;;;;;;;4985456;28;20480;-72
2022/06/22 14:31:22;;;;;;;18.20;3.60;;;;;;;;;;4981750;28;20026;-72
2022/06/22 14:33:50;;;;;;;;;;;;;;;;;;4976733;28;20254;-71
2022/06/22 14:36:36;;;;;;;16.75;3.08;;;;;;;;;;5028664;28;20192;-74
2022/06/22 14:39:25;;;;;;;19.70;3.90;;;;;;;;;;5030717;28;20309;-74
2022/06/22 14:41:58;;;;;;;18.15;3.55;;;;;;;;;;5026078;28;20083;-74
2022/06/22 14:44:38;;;;;;;17.10;3.45;;;;;;;;;;5031868;28;20033;-73
2022/06/22 14:47:44;;;;;;;20.50;3.63;;;;;;;;;;5031820;28;20080;-74
2022/06/22 14:50:20;;;;;;;20.90;4.38;;;;;;;;;;4980429;28;20415;-74
2022/06/22 14:52:46;;;;;;;;;;;;;;;;;;4969834;28;20033;-74
2022/06/22 14:55:12;;;;;;;;;;;;;;;;;;4984143;28;19919;-72
2022/06/22 14:57:50;;;;;;;17.13;3.80;;;;;;;;;;4988737;28;19913;-73
2022/06/22 15:00:19;;;;;;;16.63;3.40;;;;;;;;;;4978923;28;20545;-75
2022/06/22 15:02:49;;;;;;;20.23;3.78;;;;;;;;;;4986218;28;20034;-73
2022/06/22 15:05:19;;;;;;;18.15;3.67;;;;;;;;;;4988418;28;20076;-73
2022/06/22 15:07:53;;;;;;;19.25;3.97;;;;;;;;;;4988305;28;20368;-73
2022/06/22 15:10:25;;;;;;;19.25;3.63;;;;;;;;;;4985557;28;20058;-73
2022/06/22 15:13:03;;;;;;;18.20;3.78;;;;;;;;;;4985935;28;20072;-72
2022/06/22 15:15:39;;;;;;;16.70;3.40;;;;;;;;;;4985647;28;20104;-72
2022/06/22 15:18:14;;;;;;;15.68;3.10;;;;;;;;;;4980700;28;20037;-72
2022/06/22 15:20:50;;;;;;;19.35;3.85;;;;;;;;;;4999582;28;20052;-73
2022/06/22 15:23:22;;;;;;;20.08;4.35;;;;;;;;;;5026906;28;20036;-73
2022/06/22 15:25:48;;;;;;;19.13;3.67;;;;;;;;;;5028335;28;20025;-73
2022/06/22 15:28:28;;;;;;;19.75;3.67;;;;;;;;;;5026924;28;20127;-73
2022/06/22 15:31:03;;;;;;;17.75;3.50;;;;;;;;;;5023114;28;20033;-74
2022/06/22 15:33:32;;;;;;;18.85;4.43;;;;;;;;;;5024209;28;20028;-73
2022/06/22 15:36:11;;;;;;;20.83;3.45;;;;;;;;;;5023826;28;20025;-72
2022/06/22 15:38:59;;;;;;;23.30;3.83;;;;;;;;;;5024859;28;20025;-72
2022/06/22 15:42:00;;;;;;;21.05;4.10;;;;;;;;;;5028312;28;20029;-73
2022/06/22 15:44:31;;;;;;;17.77;3.60;;;;;;;;;;5030172;28;20057;-72